Nanjemoy, MD

12:43 AM EDT on April 19, 2015 (GMT -0400)
Culpepper Commons | | Change Station
CLOSE
Current Station
Personal Weather Station
Location: King George, VA
Elevation: 138 ft
Nearby Weather Stations

Elev 138 ft 38.32 °N, 77.13 °W | Updated 4 minutes ago

Clear
Clear
56.8 °F
Feels Like 56.8 °F
N
0.0
Wind Variable Wind from SE
Gusts 0.0 mph

Today
High -- | Low -- °F
--% Chance of Precip.
Yesterday
High -- | Low -- °F
Precip. -- in
6:27 AM 7:48 PM
New Moon, 0% visible
Pressure 30.04 in
Visibility 10.0 miles
Clouds Clear
Dew Point 52 °F
Humidity 83%
Rainfall 0.00 in
Snow Depth Not available.
UV 0 out of 12
Pollen 11.50 out of 12
Air Quality Not available.
Flu Activity Regional
METAR KNYG 190356Z AUTO 30006KT 10SM CLR 16/11 A3003 RMK AO2 SLP170 T01610111

More Conditions Fewer Conditions

Pressure 30.04 in
Visibility 10.0 miles
Clouds Clear
Dew Point 52 °F
Humidity 83%
Rainfall 0.00 in
Snow Depth Not available.
UV 0 out of 12
Pollen 11.50 out of 12
Air Quality Not available.
Flu Activity Regional
METAR KNYG 190356Z AUTO 30006KT 10SM CLR 16/11 A3003 RMK AO2 SLP170 T01610111

More Conditions Fewer Conditions

10-Day Weather Forecast

Almanac

Astronomy

Apr. 19, 2015 Rise Set
Actual Time
Civil Twilight
Nautical Twilight
Astronomical Twilight
Moon
Length of Visible Light
Length of Day
Tomorrow will be .
, % of the Moon is Illuminated

Today's Extremes

State Highs State Lows

Community

WunderPhotos

Upload Photos

1,814,723 photos uploaded!

WunderBlogs® & News

Nearby

Air Quality

  Air Quality AQ Index Pollutant
Not available.

Snow Depth

Station Depth Elevation

Earthquake Activity

City Distance Mag. Time & Date
Minimum magnitude displayed is 2.5.

Coastal Water Temperatures

Place Temperature

Stations

Nearby Weather Stations

Station Location Temp. Windchill Dew Point Humidity Wind Precip. Elev Updated Type